createdAt,value
2018-12-06T00:00:31.658Z,6.02
2018-12-06T00:02:59.182Z,5.95
2018-12-06T00:05:26.723Z,5.94
2018-12-06T00:08:06.104Z,5.94
2018-12-06T00:10:34.539Z,5.93
2018-12-06T00:13:02.271Z,5.94
2018-12-06T00:15:29.883Z,5.93
2018-12-06T00:17:57.387Z,6.04
2018-12-06T00:20:25.061Z,6.01
2018-12-06T00:22:52.614Z,5.91
2018-12-06T00:25:20.170Z,5.92
2018-12-06T00:27:47.701Z,5.93
2018-12-06T00:30:41.502Z,5.93
2018-12-06T00:33:09.237Z,5.86
2018-12-06T00:35:36.817Z,5.83
2018-12-06T00:38:04.485Z,5.79
2018-12-06T00:40:33.829Z,5.78
2018-12-06T00:43:01.406Z,5.80
2018-12-06T00:45:28.978Z,5.78
2018-12-06T00:47:56.633Z,5.78
2018-12-06T00:50:24.863Z,5.80
2018-12-06T00:52:53.390Z,5.85
2018-12-06T00:55:20.979Z,5.86
2018-12-06T00:57:48.540Z,5.89
2018-12-06T01:00:16.177Z,5.86
2018-12-06T01:02:45.327Z,5.90
2018-12-06T01:05:13.125Z,5.90
2018-12-06T01:07:40.636Z,5.92
2018-12-06T01:10:08.284Z,5.91
2018-12-06T01:12:35.865Z,5.90
2018-12-06T01:15:03.587Z,5.95
2018-12-06T01:17:31.174Z,5.87
2018-12-06T01:19:58.719Z,5.82
2018-12-06T01:22:26.301Z,5.88
2018-12-06T01:24:53.845Z,5.91
2018-12-06T01:27:21.405Z,5.86
2018-12-06T01:29:51.230Z,5.85
2018-12-06T01:32:18.783Z,5.87
2018-12-06T01:34:46.391Z,5.82
2018-12-06T01:37:14.002Z,5.83
2018-12-06T01:39:41.669Z,5.81
2018-12-06T01:42:09.252Z,5.85
2018-12-06T01:44:36.821Z,5.92
2018-12-06T01:47:04.370Z,5.92
2018-12-06T01:49:32.357Z,5.98
2018-12-06T01:51:59.981Z,5.87
2018-12-06T01:54:27.557Z,5.89
2018-12-06T01:56:55.096Z,6.01
2018-12-06T01:59:22.619Z,6.02
2018-12-06T02:01:51.122Z,6.01
2018-12-06T02:04:18.706Z,6.02
2018-12-06T02:06:46.366Z,6.08
2018-12-06T02:09:14.902Z,6.13
2018-12-06T02:11:42.536Z,6.17
2018-12-06T02:14:10.170Z,6.16
2018-12-06T02:16:38.714Z,6.18
2018-12-06T02:19:07.327Z,6.12
2018-12-06T02:21:35.547Z,5.99
2018-12-06T02:24:03.208Z,6.07
2018-12-06T02:26:30.801Z,6.11
2018-12-06T02:28:59.100Z,6.11
2018-12-06T02:31:26.811Z,6.17
2018-12-06T02:33:54.474Z,6.16
2018-12-06T02:36:22.106Z,6.18
2018-12-06T02:38:49.694Z,6.11
2018-12-06T02:41:17.228Z,6.09
2018-12-06T02:43:44.981Z,6.18
2018-12-06T02:46:12.492Z,6.20
2018-12-06T02:48:40.030Z,6.25
2018-12-06T02:51:07.620Z,6.30
2018-12-06T02:53:35.165Z,6.30
2018-12-06T02:56:03.597Z,6.33
2018-12-06T02:58:31.128Z,6.35
2018-12-06T03:00:58.714Z,6.35
2018-12-06T03:03:26.223Z,6.33
2018-12-06T03:05:53.760Z,6.38
2018-12-06T03:08:22.241Z,6.41
2018-12-06T03:10:49.755Z,6.49
2018-12-06T03:13:17.309Z,6.57
2018-12-06T03:15:45.629Z,6.58
2018-12-06T03:18:14.066Z,6.50
2018-12-06T03:20:41.560Z,6.48
2018-12-06T03:23:09.096Z,6.50
2018-12-06T03:25:36.762Z,6.52
2018-12-06T03:28:04.294Z,6.55
2018-12-06T03:30:31.856Z,6.54
2018-12-06T03:32:59.472Z,6.59
2018-12-06T03:35:27.166Z,6.60
2018-12-06T03:37:54.758Z,6.64
2018-12-06T03:40:22.286Z,6.69
2018-12-06T03:42:49.838Z,6.72
2018-12-06T03:45:17.412Z,6.73
2018-12-06T03:47:44.971Z,6.74
2018-12-06T03:50:12.698Z,6.77
2018-12-06T03:52:40.289Z,6.73
2018-12-06T03:55:07.883Z,6.71
2018-12-06T03:57:35.504Z,6.74
2018-12-06T04:00:03.531Z,6.76
2018-12-06T04:02:31.033Z,6.76
2018-12-06T04:04:58.615Z,6.79
2018-12-06T04:07:26.775Z,6.82
2018-12-06T04:09:54.676Z,6.84
2018-12-06T04:12:22.227Z,6.87
2018-12-06T04:14:49.790Z,6.91
2018-12-06T04:17:17.710Z,6.95
2018-12-06T04:19:45.246Z,6.98
2018-12-06T04:22:12.943Z,7.01
2018-12-06T04:24:40.558Z,7.06
2018-12-06T04:27:08.154Z,7.05
2018-12-06T04:29:37.389Z,7.08
2018-12-06T04:32:05.051Z,7.07
2018-12-06T04:34:32.609Z,7.07
2018-12-06T04:37:00.276Z,7.08
2018-12-06T04:39:27.980Z,7.10
2018-12-06T04:41:55.512Z,7.11
2018-12-06T04:44:23.055Z,7.15
2018-12-06T04:46:51.592Z,7.18
2018-12-06T04:49:19.200Z,7.19
2018-12-06T04:51:46.835Z,7.15
2018-12-06T04:54:14.524Z,7.17
2018-12-06T04:56:42.123Z,7.20
2018-12-06T04:59:09.651Z,7.15
2018-12-06T05:01:37.264Z,7.17
2018-12-06T05:04:05.543Z,7.21
2018-12-06T05:06:33.846Z,7.23
2018-12-06T05:09:02.135Z,7.23
2018-12-06T05:11:29.778Z,7.25
2018-12-06T05:13:57.360Z,7.21
2018-12-06T05:16:27.044Z,7.18
2018-12-06T05:18:54.625Z,7.15
2018-12-06T05:21:22.154Z,7.17
2018-12-06T05:23:49.724Z,7.15
2018-12-06T05:26:17.314Z,7.22
2018-12-06T05:28:45.437Z,7.23
2018-12-06T05:31:13.632Z,7.24
2018-12-06T05:33:41.488Z,7.27
2018-12-06T05:36:09.054Z,7.31
2018-12-06T05:38:36.859Z,7.30
2018-12-06T05:41:04.922Z,7.29
2018-12-06T05:43:33.291Z,7.31
2018-12-06T05:46:01.373Z,7.33
2018-12-06T05:48:28.982Z,7.34
2018-12-06T05:50:56.506Z,7.28
2018-12-06T05:53:24.671Z,7.40
2018-12-06T05:55:52.613Z,7.50
2018-12-06T05:58:20.306Z,7.58
2018-12-06T06:00:48.011Z,7.59
2018-12-06T06:03:15.626Z,7.59
2018-12-06T06:05:43.770Z,7.59
2018-12-06T06:08:11.934Z,7.66
2018-12-06T06:10:39.671Z,7.67
2018-12-06T06:13:07.513Z,7.67
2018-12-06T06:15:35.173Z,7.67
2018-12-06T06:18:02.943Z,7.68
2018-12-06T06:20:30.646Z,7.67
2018-12-06T06:22:58.164Z,7.67
2018-12-06T06:25:26.250Z,7.70
2018-12-06T06:27:53.776Z,7.72
2018-12-06T06:30:22.237Z,7.72
2018-12-06T06:32:49.745Z,7.70
2018-12-06T06:35:17.711Z,7.66
2018-12-06T06:37:45.238Z,7.68
2018-12-06T06:40:13.432Z,7.67
2018-12-06T06:42:42.142Z,7.72
2018-12-06T06:45:11.332Z,7.72
2018-12-06T06:47:38.925Z,7.74
2018-12-06T06:50:06.558Z,7.76
2018-12-06T06:52:34.602Z,7.77
2018-12-06T06:55:03.409Z,7.79
2018-12-06T06:57:33.434Z,7.79
2018-12-06T07:00:03.016Z,7.84
2018-12-06T07:02:32.050Z,7.86
2018-12-06T07:04:59.700Z,7.87
2018-12-06T07:07:28.755Z,7.89
2018-12-06T07:09:57.052Z,7.93
2018-12-06T07:12:25.513Z,7.92
2018-12-06T07:14:55.303Z,7.88
2018-12-06T07:17:28.066Z,7.92
2018-12-06T07:20:01.423Z,7.89
2018-12-06T07:22:33.613Z,7.91
2018-12-06T07:25:01.726Z,7.89
2018-12-06T07:27:34.709Z,7.91
2018-12-06T07:30:12.193Z,7.92
2018-12-06T07:32:37.644Z,7.97
2018-12-06T07:35:05.495Z,7.96
2018-12-06T07:37:33.688Z,7.99
2018-12-06T07:40:01.217Z,7.98
2018-12-06T07:42:28.835Z,7.99
2018-12-06T07:44:56.384Z,8.01
2018-12-06T07:47:25.467Z,8.03
2018-12-06T07:49:53.017Z,8.05
2018-12-06T07:52:20.610Z,8.07
2018-12-06T07:54:49.119Z,8.07
2018-12-06T07:59:58.078Z,8.11
2018-12-06T08:02:41.877Z,8.14
2018-12-06T08:08:26.710Z,8.19
2018-12-06T08:10:54.393Z,8.22
2018-12-06T08:13:23.040Z,8.19
2018-12-06T08:15:50.741Z,8.17
2018-12-06T08:18:18.369Z,8.23
2018-12-06T08:20:46.435Z,8.23
2018-12-06T08:23:14.006Z,8.29
2018-12-06T08:25:42.221Z,8.31
2018-12-06T08:28:09.873Z,8.32
2018-12-06T08:30:37.499Z,8.35
2018-12-06T08:33:05.053Z,8.39
2018-12-06T08:35:33.409Z,8.45
2018-12-06T08:38:02.357Z,8.56
2018-12-06T08:40:31.463Z,8.67
2018-12-06T08:42:59.082Z,8.70
2018-12-06T08:45:30.379Z,8.77
2018-12-06T08:47:59.660Z,8.74
2018-12-06T08:50:28.567Z,8.76
2018-12-06T08:52:56.720Z,8.79
2018-12-06T08:55:24.310Z,8.83
2018-12-06T08:57:53.076Z,8.88
2018-12-06T09:00:21.990Z,8.89
2018-12-06T09:02:49.551Z,8.85
2018-12-06T09:05:18.339Z,8.93
2018-12-06T09:07:45.865Z,8.97
2018-12-06T09:10:14.214Z,9.03
2018-12-06T09:12:41.947Z,9.00
2018-12-06T09:15:10.111Z,9.06
2018-12-06T09:17:37.647Z,9.10
2018-12-06T09:20:05.591Z,9.15
2018-12-06T09:22:33.179Z,9.21
2018-12-06T09:25:00.740Z,9.23
2018-12-06T09:27:28.589Z,9.28
2018-12-06T09:29:57.043Z,9.28
2018-12-06T09:32:25.116Z,9.29
2018-12-06T09:34:53.720Z,9.32
2018-12-06T09:37:22.633Z,9.36
2018-12-06T09:39:55.968Z,9.39
2018-12-06T09:42:25.704Z,9.42
2018-12-06T09:44:54.269Z,9.49
2018-12-06T09:47:21.779Z,9.54
2018-12-06T09:49:52.341Z,9.60
2018-12-06T09:52:21.785Z,9.65
2018-12-06T09:54:49.849Z,9.68
2018-12-06T09:57:20.225Z,9.74
2018-12-06T09:59:47.846Z,9.75
2018-12-06T10:02:17.182Z,9.73
2018-12-06T10:04:48.800Z,9.63
2018-12-06T10:07:18.495Z,9.54
2018-12-06T10:09:46.253Z,9.55
2018-12-06T10:12:13.763Z,9.57
2018-12-06T10:14:41.425Z,9.59
2018-12-06T10:17:10.926Z,9.57
2018-12-06T10:19:39.582Z,9.57
2018-12-06T10:22:07.146Z,9.56
2018-12-06T10:24:35.604Z,9.59
2018-12-06T10:27:03.926Z,9.58
2018-12-06T10:29:35.423Z,9.59
2018-12-06T10:32:02.991Z,9.62
2018-12-06T10:34:33.371Z,9.66
2018-12-06T10:37:01.080Z,9.66
2018-12-06T10:39:30.120Z,9.68
2018-12-06T10:41:57.841Z,9.67
2018-12-06T10:44:29.660Z,9.76
2018-12-06T10:46:58.286Z,9.79
2018-12-06T10:49:26.734Z,9.81
2018-12-06T10:51:55.326Z,9.84
2018-12-06T10:54:22.838Z,9.83
2018-12-06T10:56:51.896Z,9.85
2018-12-06T10:59:19.454Z,9.87
2018-12-06T11:01:47.012Z,9.85
2018-12-06T11:04:14.582Z,9.88
2018-12-06T11:06:42.255Z,9.91
2018-12-06T11:09:09.980Z,9.94
2018-12-06T11:11:38.333Z,9.91
2018-12-06T11:14:06.380Z,9.94
2018-12-06T11:16:37.331Z,9.95
2018-12-06T11:19:05.774Z,9.97
2018-12-06T11:21:33.361Z,9.94
2018-12-06T11:24:00.922Z,9.88
2018-12-06T11:26:28.476Z,9.88
2018-12-06T11:28:56.057Z,9.86
2018-12-06T11:31:24.267Z,9.84
2018-12-06T11:33:51.800Z,9.84
2018-12-06T11:36:19.970Z,9.82
2018-12-06T11:38:47.644Z,9.82
2018-12-06T11:41:16.100Z,9.79
2018-12-06T11:43:43.769Z,9.78
2018-12-06T11:46:11.396Z,9.81
2018-12-06T11:48:38.941Z,9.83
2018-12-06T11:51:06.481Z,9.84
2018-12-06T11:53:34.686Z,9.84
2018-12-06T11:56:03.713Z,9.84
2018-12-06T11:58:36.771Z,9.82
2018-12-06T12:01:05.505Z,9.85
2018-12-06T12:03:33.178Z,9.82
2018-12-06T12:06:00.926Z,9.82
2018-12-06T12:08:28.456Z,9.84
2018-12-06T12:10:56.658Z,9.85
2018-12-06T12:13:24.980Z,9.89
2018-12-06T12:15:55.023Z,9.91
2018-12-06T12:18:25.073Z,9.90
2018-12-06T12:20:56.624Z,9.95
2018-12-06T12:23:27.664Z,9.94
2018-12-06T12:25:55.844Z,9.96
2018-12-06T12:28:28.544Z,10.01
2018-12-06T12:30:56.119Z,10.01
2018-12-06T12:33:25.105Z,10.02
2018-12-06T12:35:55.643Z,10.03
2018-12-06T12:38:23.756Z,10.04
2018-12-06T12:40:52.608Z,10.04
2018-12-06T12:43:22.015Z,10.04
2018-12-06T12:45:51.617Z,10.00
2018-12-06T12:48:20.245Z,10.01
2018-12-06T12:50:50.892Z,10.02
2018-12-06T12:53:19.266Z,10.02
2018-12-06T12:55:48.276Z,10.04
2018-12-06T12:58:18.698Z,10.05
2018-12-06T13:00:47.093Z,10.06
2018-12-06T13:03:18.030Z,10.06
2018-12-06T13:05:47.407Z,10.06
2018-12-06T13:08:19.998Z,10.05
2018-12-06T13:10:48.311Z,10.07
2018-12-06T13:13:16.224Z,10.08
2018-12-06T13:15:44.056Z,10.11
2018-12-06T13:18:11.876Z,10.13
2018-12-06T13:20:39.381Z,10.12
2018-12-06T13:23:06.879Z,10.09
2018-12-06T13:25:35.048Z,10.09
2018-12-06T13:28:03.603Z,10.10
2018-12-06T13:30:33.242Z,10.14
2018-12-06T13:33:01.065Z,10.15
2018-12-06T13:35:28.804Z,10.15
2018-12-06T13:37:56.382Z,10.17
2018-12-06T13:40:24.091Z,10.17
2018-12-06T13:42:52.045Z,10.19
2018-12-06T13:45:19.643Z,10.20
2018-12-06T13:47:47.242Z,10.19
2018-12-06T13:50:14.912Z,10.19
2018-12-06T13:52:42.416Z,10.19
2018-12-06T13:55:11.850Z,10.20
2018-12-06T13:57:39.458Z,10.22
2018-12-06T14:00:07.356Z,10.24
2018-12-06T14:02:34.970Z,10.26
2018-12-06T14:05:02.487Z,10.26
2018-12-06T14:07:30.136Z,10.29
2018-12-06T14:09:57.743Z,10.31
2018-12-06T14:12:26.194Z,10.31
2018-12-06T14:14:53.807Z,10.33
2018-12-06T14:17:21.376Z,10.35
2018-12-06T14:19:48.986Z,10.33
2018-12-06T14:22:16.575Z,10.33
2018-12-06T14:24:44.173Z,10.35
2018-12-06T14:27:12.886Z,10.36
2018-12-06T14:29:40.454Z,10.38
2018-12-06T14:32:07.974Z,10.41
2018-12-06T14:34:35.537Z,10.41
2018-12-06T14:37:03.054Z,10.43
2018-12-06T14:39:30.801Z,10.41
2018-12-06T14:41:58.369Z,10.40
2018-12-06T14:44:26.123Z,10.40
2018-12-06T14:46:53.731Z,10.37
2018-12-06T14:49:21.277Z,10.35
2018-12-06T14:51:49.269Z,10.36
2018-12-06T14:54:16.823Z,10.38
2018-12-06T14:56:44.498Z,10.38
2018-12-06T14:59:12.062Z,10.38
2018-12-06T15:01:39.668Z,10.36
2018-12-06T15:04:07.269Z,10.36
2018-12-06T15:06:37.729Z,10.34
2018-12-06T15:09:08.616Z,10.38
2018-12-06T15:11:37.167Z,10.39
2018-12-06T15:14:04.775Z,10.41
2018-12-06T15:16:32.305Z,10.38
2018-12-06T15:18:59.849Z,10.43
2018-12-06T15:21:27.549Z,10.46
2018-12-06T15:23:55.083Z,10.48
2018-12-06T15:26:22.933Z,10.47
2018-12-06T15:28:51.285Z,10.50
2018-12-06T15:31:20.198Z,10.51
2018-12-06T15:33:47.730Z,10.51
2018-12-06T15:36:15.623Z,10.47
2018-12-06T15:38:43.336Z,10.53
2018-12-06T15:41:12.148Z,10.54
2018-12-06T15:43:39.861Z,10.56
2018-12-06T15:46:07.467Z,10.58
2018-12-06T15:48:35.061Z,10.59
2018-12-06T15:51:03.099Z,10.59
2018-12-06T15:53:30.676Z,10.59
2018-12-06T15:55:58.932Z,10.61
2018-12-06T15:58:28.426Z,10.62
2018-12-06T16:00:56.858Z,10.61
2018-12-06T16:03:24.463Z,10.63
2018-12-06T16:05:51.997Z,10.63
2018-12-06T16:08:19.752Z,10.67
2018-12-06T16:10:49.242Z,10.67
2018-12-06T16:13:17.101Z,10.68
2018-12-06T16:15:44.759Z,10.68
2018-12-06T16:18:12.442Z,10.68
2018-12-06T16:20:40.122Z,10.69
2018-12-06T16:23:07.899Z,10.71
2018-12-06T16:25:35.542Z,10.73
2018-12-06T16:28:03.227Z,10.73
2018-12-06T16:30:30.766Z,10.75
2018-12-06T16:32:59.181Z,10.77
2018-12-06T16:35:28.564Z,10.78
2018-12-06T16:37:57.124Z,10.79
2018-12-06T16:40:25.625Z,10.80
2018-12-06T16:42:53.442Z,10.82
2018-12-06T16:45:21.072Z,10.85
2018-12-06T16:47:48.639Z,10.86
2018-12-06T16:50:16.173Z,10.94
2018-12-06T16:52:43.776Z,10.99
2018-12-06T16:55:11.563Z,11.01
2018-12-06T16:57:39.149Z,11.05
2018-12-06T17:00:11.285Z,11.07
2018-12-06T17:02:39.021Z,11.15
2018-12-06T17:05:06.680Z,11.22
2018-12-06T17:07:34.208Z,11.24
2018-12-06T17:10:02.726Z,11.28
2018-12-06T17:12:30.384Z,11.31
2018-12-06T17:14:59.062Z,11.33
2018-12-06T17:17:27.628Z,11.30
2018-12-06T17:19:59.225Z,11.34
2018-12-06T17:22:27.243Z,11.35
2018-12-06T17:24:54.886Z,11.37
2018-12-06T17:27:22.679Z,11.38
2018-12-06T17:29:50.261Z,11.40
2018-12-06T17:32:20.980Z,11.41
2018-12-06T17:34:48.652Z,11.43
2018-12-06T17:37:17.500Z,11.46
2018-12-06T17:39:45.613Z,11.50
2018-12-06T17:42:13.378Z,11.54
2018-12-06T17:47:24.625Z,11.57
2018-12-06T17:49:55.195Z,11.60
2018-12-06T17:52:27.066Z,11.59
2018-12-06T17:54:55.256Z,11.61
2018-12-06T17:57:23.843Z,11.61
2018-12-06T17:59:57.620Z,11.62
2018-12-06T18:02:28.117Z,11.62
2018-12-06T18:04:56.441Z,11.65
2018-12-06T18:07:24.851Z,11.64
2018-12-06T18:09:52.728Z,11.64
2018-12-06T18:12:20.739Z,11.64
2018-12-06T18:14:49.844Z,11.66
2018-12-06T18:17:17.426Z,11.67
2018-12-06T18:19:47.920Z,11.68
2018-12-06T18:22:15.579Z,11.70
2018-12-06T18:24:43.177Z,11.71
2018-12-06T18:27:10.914Z,11.74
2018-12-06T18:29:38.461Z,11.75
2018-12-06T18:32:06.117Z,11.76
2018-12-06T18:34:33.741Z,11.77
2018-12-06T18:37:02.901Z,11.78
2018-12-06T18:39:31.994Z,11.79
2018-12-06T18:41:59.652Z,11.78
2018-12-06T18:44:27.268Z,11.76
2018-12-06T18:46:55.573Z,11.77
2018-12-06T18:49:24.094Z,11.76
2018-12-06T18:51:51.640Z,11.77
2018-12-06T18:54:19.143Z,11.78
2018-12-06T18:56:47.514Z,11.77
2018-12-06T18:59:15.422Z,11.76
2018-12-06T19:01:46.018Z,11.75
2018-12-06T19:04:14.224Z,11.75
2018-12-06T19:06:42.017Z,11.73
2018-12-06T19:09:10.416Z,11.73
2018-12-06T19:11:37.996Z,11.76
2018-12-06T19:14:06.607Z,11.76
2018-12-06T19:16:34.161Z,11.77
2018-12-06T19:19:01.774Z,11.79
2018-12-06T19:21:29.719Z,11.79
2018-12-06T19:23:57.249Z,11.78
2018-12-06T19:26:24.887Z,11.80
2018-12-06T19:28:52.395Z,11.84
2018-12-06T19:31:20.007Z,11.84
2018-12-06T19:33:47.571Z,11.86
2018-12-06T19:36:15.100Z,11.87
2018-12-06T19:38:42.684Z,11.89
2018-12-06T19:41:10.206Z,11.90
2018-12-06T19:43:38.372Z,11.92
2018-12-06T19:46:06.532Z,11.91
2018-12-06T19:48:34.095Z,11.92
2018-12-06T19:51:01.623Z,11.94
2018-12-06T19:53:29.214Z,11.95
2018-12-06T19:55:56.806Z,11.95
2018-12-06T19:58:24.411Z,11.95
2018-12-06T20:00:51.976Z,11.98
2018-12-06T20:03:19.952Z,11.99
2018-12-06T20:05:47.902Z,12.03
2018-12-06T20:08:16.768Z,12.03
2018-12-06T20:10:44.336Z,12.03
2018-12-06T20:13:11.887Z,12.09
2018-12-06T20:15:39.907Z,12.11
2018-12-06T20:18:07.625Z,12.12
2018-12-06T20:20:35.148Z,12.13
2018-12-06T20:23:03.258Z,12.13
2018-12-06T20:25:30.889Z,12.13
2018-12-06T20:27:58.481Z,12.13
2018-12-06T20:30:26.144Z,12.12
2018-12-06T20:32:53.704Z,12.13
2018-12-06T20:35:21.214Z,12.12
2018-12-06T20:37:48.745Z,12.13
2018-12-06T20:40:16.299Z,12.13
2018-12-06T20:42:43.941Z,12.13
2018-12-06T20:45:11.728Z,12.12
2018-12-06T20:47:39.277Z,12.13
2018-12-06T20:50:06.875Z,12.11
2018-12-06T20:52:35.387Z,12.11
2018-12-06T20:55:03.124Z,12.10
2018-12-06T20:57:37.220Z,12.10
2018-12-06T21:00:02.029Z,12.09
2018-12-06T21:02:29.763Z,12.11
2018-12-06T21:04:57.369Z,12.12
2018-12-06T21:07:25.343Z,12.11
2018-12-06T21:09:53.113Z,12.12
2018-12-06T21:12:20.663Z,12.13
2018-12-06T21:14:48.582Z,12.13
2018-12-06T21:17:16.117Z,12.15
2018-12-06T21:19:43.689Z,12.14
2018-12-06T21:22:11.436Z,12.15
2018-12-06T21:24:38.981Z,12.14
2018-12-06T21:27:06.998Z,12.14
2018-12-06T21:29:34.899Z,12.14
2018-12-06T21:32:02.962Z,12.15
2018-12-06T21:34:30.967Z,12.13
2018-12-06T21:36:58.529Z,12.13
2018-12-06T21:39:26.077Z,12.15
2018-12-06T21:41:53.641Z,12.14
2018-12-06T21:44:21.692Z,12.13
2018-12-06T21:46:49.298Z,12.13
2018-12-06T21:49:16.913Z,12.12
2018-12-06T21:51:44.513Z,12.13
2018-12-06T21:54:12.191Z,12.15
2018-12-06T21:56:39.889Z,12.13
2018-12-06T21:59:07.613Z,12.15
2018-12-06T22:01:35.244Z,12.16
2018-12-06T22:04:04.200Z,12.19
2018-12-06T22:06:31.860Z,12.22
2018-12-06T22:08:59.666Z,12.22
2018-12-06T22:11:28.813Z,12.25
2018-12-06T22:13:56.450Z,12.27
2018-12-06T22:16:24.037Z,12.27
2018-12-06T22:18:51.608Z,12.29
2018-12-06T22:21:19.175Z,12.32
2018-12-06T22:23:47.080Z,12.33
2018-12-06T22:26:14.751Z,12.38
2018-12-06T22:28:42.723Z,12.40
2018-12-06T22:31:10.335Z,12.40
2018-12-06T22:33:37.900Z,12.42
2018-12-06T22:36:06.734Z,12.42
2018-12-06T22:38:35.334Z,12.44
2018-12-06T22:41:04.463Z,12.46
2018-12-06T22:43:33.030Z,12.47
2018-12-06T22:46:00.971Z,12.49
2018-12-06T22:48:28.664Z,12.51
2018-12-06T22:50:56.377Z,12.53
2018-12-06T22:53:24.931Z,12.58
2018-12-06T22:55:52.684Z,12.60
2018-12-06T22:58:20.266Z,12.60
2018-12-06T23:00:50.824Z,12.61
2018-12-06T23:03:18.551Z,12.63
2018-12-06T23:05:46.101Z,12.63
2018-12-06T23:08:13.631Z,12.64
2018-12-06T23:10:42.134Z,12.64
2018-12-06T23:13:10.175Z,12.65
2018-12-06T23:15:37.693Z,12.65
2018-12-06T23:18:05.202Z,12.66
2018-12-06T23:20:32.735Z,12.67
2018-12-06T23:23:00.294Z,12.66
2018-12-06T23:25:27.881Z,12.68
2018-12-06T23:27:55.425Z,12.67
2018-12-06T23:30:23.983Z,12.64
2018-12-06T23:32:51.572Z,12.64
2018-12-06T23:35:19.160Z,12.65
2018-12-06T23:37:46.727Z,12.64
2018-12-06T23:40:14.295Z,12.64
2018-12-06T23:42:41.962Z,12.63
2018-12-06T23:45:09.627Z,12.63
2018-12-06T23:47:38.403Z,12.63
2018-12-06T23:50:06.506Z,12.62
2018-12-06T23:52:34.886Z,12.62
2018-12-06T23:55:02.543Z,12.61
2018-12-06T23:57:30.815Z,12.62
2018-12-06T23:59:58.422Z,12.64
